메인 페이지
METAR-TAF:

METAR-TAF

공항 :

Ali Al Salem Air Base, 쿠웨이트

위도: 29-20-48N, 경도: 47-31-14E, 고도: 144m

현재 날씨관측

예보는 31분 전, 08:59시(UTC)에 발표되었습니다.
17kt, 순간 최대 풍속 24kt
온도 44°C
습도 9%
기압 1006 hPa
시정 10km 이상
고도 25000ft 상공 구름 조금

METAR: OKAS 040859Z 36017G24KT 9999 FEW250 44/04 A2971 RMK AO2A PK WND 36027/13 SLP054 T04400041 57006 $

시각: 12:30 (09:30 UTC)

예보

예보는 2 시간 30분 전, 07:00시(UTC)에 발표되었습니다.
예보 대상 시간: 04일 07시부터 05일 13시까지 (UTC)
20kt, 순간 최대 풍속 30kt
시정: 8000m
맑음
연무
전환 중
04일 15시부터 04일 16시까지 (UTC)
북북서12kt
시정: 9000m
맑음
연무
전환 중
04일 21시부터 04일 22시까지 (UTC)
북북서15kt, 순간 최대 풍속 25kt
시정: 9000m
맑음
연무
전환 중
05일 03시부터 05일 04시까지 (UTC)
북북서20kt, 순간 최대 풍속 30kt
시정: 8000m
맑음
연무

TAF: OKAS 040700Z 0407/0513 35020G30KT 8000 HZ SKC QNH2968INS BECMG 0415/0416 33012KT 9000 HZ SKC QNH2968INS BECMG 0421/0422 33015G25KT 9000 HZ SKC QNH2972INS BECMG 0503/0504 34020G30KT 8000 HZ SKC QNH2966INS TX47/0412Z TN31/0503Z

4,000개 이상의 공항 관측 자료 및 예보 (METAR 및 TAF 보고).

지도상에서 검색 가능한 기상관측소가 노란 점과 빨간 점으로 표시되어 있습니다.

기상관측소 명을 보려면 표시 위로 마우스를 이동하세요.

날씨 관측과 예보를 보려면 클릭하세요.

지도 변경 : 확대하려면 엑스 표시가 있는 녹색 버튼, 축소하려면 빼기 표시가 있는 녹색 버튼, 다음 페이지의 지도를 보려면 녹색 화살표를 클릭하세요.


METAR-TAF: